sensor_id;sensor_type;location;lat;lon;timestamp;pressure;altitude;pressure_sealevel;temperature
37452;BMP280;23314;51.114;6.900;2023-11-21T00:00:04;100687.94;;;9.25
37452;BMP280;23314;51.114;6.900;2023-11-21T00:02:35;100692.88;;;9.23
37452;BMP280;23314;51.114;6.900;2023-11-21T00:05:01;100696.31;;;9.20
37452;BMP280;23314;51.114;6.900;2023-11-21T00:07:28;100699.78;;;9.17
37452;BMP280;23314;51.114;6.900;2023-11-21T00:09:53;100697.50;;;9.12
37452;BMP280;23314;51.114;6.900;2023-11-21T00:12:20;100696.78;;;9.08
37452;BMP280;23314;51.114;6.900;2023-11-21T00:14:46;100704.78;;;9.08
37452;BMP280;23314;51.114;6.900;2023-11-21T00:17:11;100704.03;;;9.07
37452;BMP280;23314;51.114;6.900;2023-11-21T00:19:36;100700.94;;;9.09
37452;BMP280;23314;51.114;6.900;2023-11-21T00:22:02;100707.03;;;9.09
37452;BMP280;23314;51.114;6.900;2023-11-21T00:24:27;100705.13;;;9.10
37452;BMP280;23314;51.114;6.900;2023-11-21T00:26:52;100710.50;;;9.06
37452;BMP280;23314;51.114;6.900;2023-11-21T00:29:18;100713.53;;;9.01
37452;BMP280;23314;51.114;6.900;2023-11-21T00:31:44;100717.00;;;8.98
37452;BMP280;23314;51.114;6.900;2023-11-21T00:34:11;100725.34;;;9.00
37452;BMP280;23314;51.114;6.900;2023-11-21T00:36:37;100718.09;;;9.04
37452;BMP280;23314;51.114;6.900;2023-11-21T00:39:02;100718.81;;;9.08
37452;BMP280;23314;51.114;6.900;2023-11-21T00:41:28;100719.56;;;9.12
37452;BMP280;23314;51.114;6.900;2023-11-21T00:43:54;100719.16;;;9.18
37452;BMP280;23314;51.114;6.900;2023-11-21T00:46:20;100719.50;;;9.23
37452;BMP280;23314;51.114;6.900;2023-11-21T00:48:45;100713.38;;;9.26
37452;BMP280;23314;51.114;6.900;2023-11-21T00:51:11;100718.69;;;9.30
37452;BMP280;23314;51.114;6.900;2023-11-21T00:53:36;100720.94;;;9.35
37452;BMP280;23314;51.114;6.900;2023-11-21T00:56:01;100716.69;;;9.41
37452;BMP280;23314;51.114;6.900;2023-11-21T00:58:28;100723.88;;;9.48
37452;BMP280;23314;51.114;6.900;2023-11-21T01:00:53;100727.25;;;9.56
37452;BMP280;23314;51.114;6.900;2023-11-21T01:03:19;100733.28;;;9.63
37452;BMP280;23314;51.114;6.900;2023-11-21T01:05:45;100734.34;;;9.70
37452;BMP280;23314;51.114;6.900;2023-11-21T01:08:11;100738.50;;;9.74
37452;BMP280;23314;51.114;6.900;2023-11-21T01:10:36;100742.63;;;9.79
37452;BMP280;23314;51.114;6.900;2023-11-21T01:13:02;100742.19;;;9.84
37452;BMP280;23314;51.114;6.900;2023-11-21T01:15:30;100741.00;;;9.89
37452;BMP280;23314;51.114;6.900;2023-11-21T01:17:55;100745.16;;;9.93
37452;BMP280;23314;51.114;6.900;2023-11-21T01:20:20;100744.75;;;9.95
37452;BMP280;23314;51.114;6.900;2023-11-21T01:22:46;100742.47;;;9.97
37452;BMP280;23314;51.114;6.900;2023-11-21T01:25:14;100748.91;;;10.00
37452;BMP280;23314;51.114;6.900;2023-11-21T01:27:41;100746.94;;;10.04
37452;BMP280;23314;51.114;6.900;2023-11-21T01:30:07;100745.44;;;10.06
37452;BMP280;23314;51.114;6.900;2023-11-21T01:32:33;100755.31;;;10.09
37452;BMP280;23314;51.114;6.900;2023-11-21T01:34:59;100755.69;;;10.08
37452;BMP280;23314;51.114;6.900;2023-11-21T01:37:25;100753.03;;;10.08
37452;BMP280;23314;51.114;6.900;2023-11-21T01:39:53;100754.16;;;10.07
37452;BMP280;23314;51.114;6.900;2023-11-21T01:42:20;100755.72;;;10.04
37452;BMP280;23314;51.114;6.900;2023-11-21T01:44:45;100750.06;;;9.99
37452;BMP280;23314;51.114;6.900;2023-11-21T01:47:11;100759.66;;;9.92
37452;BMP280;23314;51.114;6.900;2023-11-21T01:49:37;100757.84;;;9.82
37452;BMP280;23314;51.114;6.900;2023-11-21T01:52:03;100762.88;;;9.73
37452;BMP280;23314;51.114;6.900;2023-11-21T01:54:29;100768.63;;;9.64
37452;BMP280;23314;51.114;6.900;2023-11-21T01:56:58;100760.66;;;9.60
37452;BMP280;23314;51.114;6.900;2023-11-21T01:59:35;100762.97;;;9.58
37452;BMP280;23314;51.114;6.900;2023-11-21T02:02:08;100763.72;;;9.62
37452;BMP280;23314;51.114;6.900;2023-11-21T02:04:35;100765.22;;;9.63
37452;BMP280;23314;51.114;6.900;2023-11-21T02:07:02;100762.50;;;9.67
37452;BMP280;23314;51.114;6.900;2023-11-21T02:09:30;100773.91;;;9.71
37452;BMP280;23314;51.114;6.900;2023-11-21T02:11:56;100771.19;;;9.75
37452;BMP280;23314;51.114;6.900;2023-11-21T02:14:27;100779.56;;;9.81
37452;BMP280;23314;51.114;6.900;2023-11-21T02:16:54;100781.78;;;9.86
37452;BMP280;23314;51.114;6.900;2023-11-21T02:19:20;100780.97;;;9.89
37452;BMP280;23314;51.114;6.900;2023-11-21T02:21:49;100779.81;;;9.93
37452;BMP280;23314;51.114;6.900;2023-11-21T02:24:15;100784.34;;;9.97
37452;BMP280;23314;51.114;6.900;2023-11-21T02:26:42;100778.22;;;10.00
37452;BMP280;23314;51.114;6.900;2023-11-21T02:29:07;100789.22;;;10.05
37452;BMP280;23314;51.114;6.900;2023-11-21T02:31:36;100794.16;;;10.07
37452;BMP280;23314;51.114;6.900;2023-11-21T02:34:02;100796.03;;;10.10
37452;BMP280;23314;51.114;6.900;2023-11-21T02:36:28;100802.06;;;10.14
37452;BMP280;23314;51.114;6.900;2023-11-21T02:38:53;100799.78;;;10.16
37452;BMP280;23314;51.114;6.900;2023-11-21T02:41:19;100798.22;;;10.19
37452;BMP280;23314;51.114;6.900;2023-11-21T02:43:44;100799.34;;;10.21
37452;BMP280;23314;51.114;6.900;2023-11-21T02:46:09;100793.59;;;10.23
37452;BMP280;23314;51.114;6.900;2023-11-21T02:48:34;100808.81;;;10.26
37452;BMP280;23314;51.114;6.900;2023-11-21T02:51:01;100810.34;;;10.27
37452;BMP280;23314;51.114;6.900;2023-11-21T02:53:26;100811.44;;;10.30
37452;BMP280;23314;51.114;6.900;2023-11-21T02:55:51;100816.75;;;10.30
37452;BMP280;23314;51.114;6.900;2023-11-21T02:58:17;100804.94;;;10.31
37452;BMP280;23314;51.114;6.900;2023-11-21T03:00:42;100811.03;;;10.35
37452;BMP280;23314;51.114;6.900;2023-11-21T03:03:07;100811.38;;;10.37
37452;BMP280;23314;51.114;6.900;2023-11-21T03:05:33;100809.44;;;10.37
37452;BMP280;23314;51.114;6.900;2023-11-21T03:08:00;100820.09;;;10.37
37452;BMP280;23314;51.114;6.900;2023-11-21T03:10:26;100814.41;;;10.39
37452;BMP280;23314;51.114;6.900;2023-11-21T03:12:52;100814.75;;;10.41
37452;BMP280;23314;51.114;6.900;2023-11-21T03:15:17;100829.97;;;10.44
37452;BMP280;23314;51.114;6.900;2023-11-21T03:17:43;100824.66;;;10.44
37452;BMP280;23314;51.114;6.900;2023-11-21T03:20:08;100820.06;;;10.44
37452;BMP280;23314;51.114;6.900;2023-11-21T03:22:36;100820.84;;;10.45
37452;BMP280;23314;51.114;6.900;2023-11-21T03:25:01;100821.97;;;10.44
37452;BMP280;23314;51.114;6.900;2023-11-21T03:27:28;100825.72;;;10.47
37452;BMP280;23314;51.114;6.900;2023-11-21T03:29:53;100830.66;;;10.48
37452;BMP280;23314;51.114;6.900;2023-11-21T03:32:19;100829.50;;;10.49
37452;BMP280;23314;51.114;6.900;2023-11-21T03:34:57;100830.28;;;10.50
37452;BMP280;23314;51.114;6.900;2023-11-21T03:37:23;100823.81;;;10.51
37452;BMP280;23314;51.114;6.900;2023-11-21T03:39:50;100836.72;;;10.52
37452;BMP280;23314;51.114;6.900;2023-11-21T03:42:15;100846.66;;;10.52
37452;BMP280;23314;51.114;6.900;2023-11-21T03:44:40;100842.84;;;10.53
37452;BMP280;23314;51.114;6.900;2023-11-21T03:47:06;100849.31;;;10.52
37452;BMP280;23314;51.114;6.900;2023-11-21T03:49:31;100851.59;;;10.53
37452;BMP280;23314;51.114;6.900;2023-11-21T03:51:56;100854.66;;;10.52
37452;BMP280;23314;51.114;6.900;2023-11-21T03:54:22;100863.81;;;10.51
37452;BMP280;23314;51.114;6.900;2023-11-21T03:56:47;100864.56;;;10.51
37452;BMP280;23314;51.114;6.900;2023-11-21T03:59:12;100869.88;;;10.51
37452;BMP280;23314;51.114;6.900;2023-11-21T04:01:38;100874.47;;;10.51
37452;BMP280;23314;51.114;6.900;2023-11-21T04:04:03;100873.34;;;10.52
37452;BMP280;23314;51.114;6.900;2023-11-21T04:06:29;100875.22;;;10.51
37452;BMP280;23314;51.114;6.900;2023-11-21T04:08:55;100873.72;;;10.50
37452;BMP280;23314;51.114;6.900;2023-11-21T04:11:20;100875.63;;;10.50
37452;BMP280;23314;51.114;6.900;2023-11-21T04:13:45;100880.19;;;10.49
37452;BMP280;23314;51.114;6.900;2023-11-21T04:16:12;100876.38;;;10.50
37452;BMP280;23314;51.114;6.900;2023-11-21T04:18:38;100875.22;;;10.51
37452;BMP280;23314;51.114;6.900;2023-11-21T04:21:07;100872.97;;;10.50
37452;BMP280;23314;51.114;6.900;2023-11-21T04:23:33;100878.66;;;10.48
37452;BMP280;23314;51.114;6.900;2023-11-21T04:25:59;100880.22;;;10.46
37452;BMP280;23314;51.114;6.900;2023-11-21T04:28:25;100876.06;;;10.44
37452;BMP280;23314;51.114;6.900;2023-11-21T04:30:50;100878.75;;;10.41
37452;BMP280;23314;51.114;6.900;2023-11-21T04:33:15;100879.50;;;10.41
37452;BMP280;23314;51.114;6.900;2023-11-21T04:35:41;100876.09;;;10.41
37452;BMP280;23314;51.114;6.900;2023-11-21T04:38:07;100882.63;;;10.36
37452;BMP280;23314;51.114;6.900;2023-11-21T04:40:32;100881.50;;;10.34
37452;BMP280;23314;51.114;6.900;2023-11-21T04:42:57;100878.47;;;10.32
37452;BMP280;23314;51.114;6.900;2023-11-21T04:45:23;100893.34;;;10.29
37452;BMP280;23314;51.114;6.900;2023-11-21T04:47:48;100886.16;;;10.26
37452;BMP280;23314;51.114;6.900;2023-11-21T04:50:14;100883.09;;;10.24
37452;BMP280;23314;51.114;6.900;2023-11-21T04:52:39;100893.00;;;10.23
37452;BMP280;23314;51.114;6.900;2023-11-21T04:55:05;100890.34;;;10.20
37452;BMP280;23314;51.114;6.900;2023-11-21T04:57:31;100896.88;;;10.19
37452;BMP280;23314;51.114;6.900;2023-11-21T04:59:56;100896.88;;;10.19
37452;BMP280;23314;51.114;6.900;2023-11-21T05:02:22;100895.34;;;10.18
37452;BMP280;23314;51.114;6.900;2023-11-21T05:04:47;100896.88;;;10.19
37452;BMP280;23314;51.114;6.900;2023-11-21T05:07:13;100902.97;;;10.19
37452;BMP280;23314;51.114;6.900;2023-11-21T05:09:42;100900.69;;;10.18
37452;BMP280;23314;51.114;6.900;2023-11-21T05:12:10;100915.16;;;10.17
37452;BMP280;23314;51.114;6.900;2023-11-21T05:14:36;100911.75;;;10.16
37452;BMP280;23314;51.114;6.900;2023-11-21T05:17:01;100913.25;;;10.17
37452;BMP280;23314;51.114;6.900;2023-11-21T05:19:26;100918.59;;;10.17
37452;BMP280;23314;51.114;6.900;2023-11-21T05:21:52;100918.97;;;10.16
37452;BMP280;23314;51.114;6.900;2023-11-21T05:24:17;100929.63;;;10.16
37452;BMP280;23314;51.114;6.900;2023-11-21T05:26:42;100924.69;;;10.14
37452;BMP280;23314;51.114;6.900;2023-11-21T05:29:08;100932.69;;;10.14
37452;BMP280;23314;51.114;6.900;2023-11-21T05:31:36;100930.78;;;10.11
37452;BMP280;23314;51.114;6.900;2023-11-21T05:34:01;100932.31;;;10.12
37452;BMP280;23314;51.114;6.900;2023-11-21T05:36:27;100937.66;;;10.12
37452;BMP280;23314;51.114;6.900;2023-11-21T05:38:52;100939.16;;;10.13
37452;BMP280;23314;51.114;6.900;2023-11-21T05:41:17;100947.16;;;10.13
37452;BMP280;23314;51.114;6.900;2023-11-21T05:43:43;100950.56;;;10.14
37452;BMP280;23314;51.114;6.900;2023-11-21T05:46:09;100948.31;;;10.12
37452;BMP280;23314;51.114;6.900;2023-11-21T05:48:34;100949.84;;;10.13
37452;BMP280;23314;51.114;6.900;2023-11-21T05:51:04;100957.88;;;10.09
37452;BMP280;23314;51.114;6.900;2023-11-21T05:53:29;100953.28;;;10.10
37452;BMP280;23314;51.114;6.900;2023-11-21T05:55:55;100955.47;;;10.22
37452;BMP280;23314;51.114;6.900;2023-11-21T05:58:21;100962.78;;;10.11
37452;BMP280;23314;51.114;6.900;2023-11-21T06:00:46;100964.41;;;9.98
37452;BMP280;23314;51.114;6.900;2023-11-21T06:03:12;100972.09;;;9.88
37452;BMP280;23314;51.114;6.900;2023-11-21T06:05:37;100975.50;;;9.89
37452;BMP280;23314;51.114;6.900;2023-11-21T06:08:03;100979.97;;;10.03
37452;BMP280;23314;51.114;6.900;2023-11-21T06:10:28;100978.16;;;9.89
37452;BMP280;23314;51.114;6.900;2023-11-21T06:12:53;100985.78;;;9.90
37452;BMP280;23314;51.114;6.900;2023-11-21T06:15:19;100988.72;;;10.03
37452;BMP280;23314;51.114;6.900;2023-11-21T06:17:46;100994.53;;;9.91
37452;BMP280;23314;51.114;6.900;2023-11-21T06:20:15;100998.00;;;9.77
37452;BMP280;23314;51.114;6.900;2023-11-21T06:22:42;100997.97;;;9.84
37452;BMP280;23314;51.114;6.900;2023-11-21T06:25:09;100997.31;;;9.73
37452;BMP280;23314;51.114;6.900;2023-11-21T06:27:38;101000.75;;;9.62
37452;BMP280;23314;51.114;6.900;2023-11-21T06:30:04;101012.22;;;9.56
37452;BMP280;23314;51.114;6.900;2023-11-21T06:32:32;101007.97;;;9.66
37452;BMP280;23314;51.114;6.900;2023-11-21T06:34:57;101019.78;;;9.57
37452;BMP280;23314;51.114;6.900;2023-11-21T06:37:28;101019.06;;;9.50
37452;BMP280;23314;51.114;6.900;2023-11-21T06:39:54;101018.31;;;9.45
37452;BMP280;23314;51.114;6.900;2023-11-21T06:42:19;101028.59;;;9.43
37452;BMP280;23314;51.114;6.900;2023-11-21T06:44:47;101022.50;;;9.39
37452;BMP280;23314;51.114;6.900;2023-11-21T06:47:13;101026.28;;;9.38
37452;BMP280;23314;51.114;6.900;2023-11-21T06:49:39;101026.34;;;9.35
37452;BMP280;23314;51.114;6.900;2023-11-21T06:52:04;101034.69;;;9.37
37452;BMP280;23314;51.114;6.900;2023-11-21T06:54:33;101038.47;;;9.39
37452;BMP280;23314;51.114;6.900;2023-11-21T06:56:59;101047.22;;;9.47
37452;BMP280;23314;51.114;6.900;2023-11-21T06:59:24;101054.03;;;9.55
37452;BMP280;23314;51.114;6.900;2023-11-21T07:01:50;101060.09;;;9.63
37452;BMP280;23314;51.114;6.900;2023-11-21T07:04:15;101069.59;;;9.71
37452;BMP280;23314;51.114;6.900;2023-11-21T07:06:41;101062.31;;;9.79
37452;BMP280;23314;51.114;6.900;2023-11-21T07:09:06;101057.72;;;9.87
37452;BMP280;23314;51.114;6.900;2023-11-21T07:11:34;101063.78;;;9.94
37452;BMP280;23314;51.114;6.900;2023-11-21T07:13:59;101068.69;;;10.03
37452;BMP280;23314;51.114;6.900;2023-11-21T07:16:27;101080.06;;;10.11
37452;BMP280;23314;51.114;6.900;2023-11-21T07:18:53;101080.06;;;10.18
37452;BMP280;23314;51.114;6.900;2023-11-21T07:21:20;101090.66;;;10.25
37452;BMP280;23314;51.114;6.900;2023-11-21T07:23:45;101103.22;;;10.32
37452;BMP280;23314;51.114;6.900;2023-11-21T07:26:11;101106.59;;;10.40
37452;BMP280;23314;51.114;6.900;2023-11-21T07:28:36;101113.00;;;10.46
37452;BMP280;23314;51.114;6.900;2023-11-21T07:31:01;101112.63;;;10.51
37452;BMP280;23314;51.114;6.900;2023-11-21T07:33:28;101111.06;;;10.57
37452;BMP280;23314;51.114;6.900;2023-11-21T07:35:54;101109.47;;;10.64
37452;BMP280;23314;51.114;6.900;2023-11-21T07:38:19;101104.84;;;10.71
37452;BMP280;23314;51.114;6.900;2023-11-21T07:40:44;101098.34;;;10.76
37452;BMP280;23314;51.114;6.900;2023-11-21T07:43:09;101102.09;;;10.82
37452;BMP280;23314;51.114;6.900;2023-11-21T07:45:36;101102.44;;;10.88
37452;BMP280;23314;51.114;6.900;2023-11-21T07:48:01;101108.13;;;10.94
37452;BMP280;23314;51.114;6.900;2023-11-21T07:50:28;101110.34;;;10.99
37452;BMP280;23314;51.114;6.900;2023-11-21T07:52:54;101106.09;;;11.05
37452;BMP280;23314;51.114;6.900;2023-11-21T07:55:19;101103.78;;;11.11
37452;BMP280;23314;51.114;6.900;2023-11-21T07:57:45;101108.69;;;11.16
37452;BMP280;23314;51.114;6.900;2023-11-21T08:00:12;101109.81;;;11.18
37452;BMP280;23314;51.114;6.900;2023-11-21T08:02:41;101115.13;;;11.22
37452;BMP280;23314;51.114;6.900;2023-11-21T08:05:08;101118.53;;;11.26
37452;BMP280;23314;51.114;6.900;2023-11-21T08:07:33;101123.81;;;11.30
37452;BMP280;23314;51.114;6.900;2023-11-21T08:09:58;101132.91;;;11.36
37452;BMP280;23314;51.114;6.900;2023-11-21T08:12:24;101139.00;;;11.40
37452;BMP280;23314;51.114;6.900;2023-11-21T08:14:49;101146.19;;;11.43
37452;BMP280;23314;51.114;6.900;2023-11-21T08:17:15;101149.22;;;11.49
37452;BMP280;23314;51.114;6.900;2023-11-21T08:19:41;101157.16;;;11.52
37452;BMP280;23314;51.114;6.900;2023-11-21T08:22:06;101159.06;;;11.55
37452;BMP280;23314;51.114;6.900;2023-11-21T08:24:33;101167.44;;;11.57
37452;BMP280;23314;51.114;6.900;2023-11-21T08:26:58;101173.88;;;11.60
37452;BMP280;23314;51.114;6.900;2023-11-21T08:29:23;101181.88;;;11.60
37452;BMP280;23314;51.114;6.900;2023-11-21T08:31:49;101173.47;;;11.65
37452;BMP280;23314;51.114;6.900;2023-11-21T08:34:14;101181.34;;;11.76
37452;BMP280;23314;51.114;6.900;2023-11-21T08:36:44;101184.22;;;11.93
37452;BMP280;23314;51.114;6.900;2023-11-21T08:39:09;101177.06;;;12.17
37452;BMP280;23314;51.114;6.900;2023-11-21T08:41:35;101191.66;;;12.12
37452;BMP280;23314;51.114;6.900;2023-11-21T08:44:02;101189.72;;;12.13
37452;BMP280;23314;51.114;6.900;2023-11-21T08:46:32;101197.00;;;12.12
37452;BMP280;23314;51.114;6.900;2023-11-21T08:49:00;101190.81;;;12.15
37452;BMP280;23314;51.114;6.900;2023-11-21T08:51:26;101203.16;;;12.09
37452;BMP280;23314;51.114;6.900;2023-11-21T08:53:51;101200.94;;;12.04
37452;BMP280;23314;51.114;6.900;2023-11-21T08:56:17;101204.00;;;11.99
37452;BMP280;23314;51.114;6.900;2023-11-21T08:58:43;101205.16;;;11.98
37452;BMP280;23314;51.114;6.900;2023-11-21T09:01:09;101205.97;;;11.95
37452;BMP280;23314;51.114;6.900;2023-11-21T09:03:34;101205.97;;;11.95
37452;BMP280;23314;51.114;6.900;2023-11-21T09:06:00;101206.75;;;11.95
37452;BMP280;23314;51.114;6.900;2023-11-21T09:08:25;101212.44;;;11.97
37452;BMP280;23314;51.114;6.900;2023-11-21T09:10:53;101217.78;;;11.97
37452;BMP280;23314;51.114;6.900;2023-11-21T09:13:18;101217.38;;;11.99
37452;BMP280;23314;51.114;6.900;2023-11-21T09:15:44;101223.41;;;12.10
37452;BMP280;23314;51.114;6.900;2023-11-21T09:18:13;101227.94;;;12.13
37452;BMP280;23314;51.114;6.900;2023-11-21T09:20:38;101230.94;;;12.15
37452;BMP280;23314;51.114;6.900;2023-11-21T09:23:04;101240.50;;;12.16
37452;BMP280;23314;51.114;6.900;2023-11-21T09:25:29;101240.50;;;12.16
37452;BMP280;23314;51.114;6.900;2023-11-21T09:27:54;101245.03;;;12.19
37452;BMP280;23314;51.114;6.900;2023-11-21T09:30:20;101243.88;;;12.20
37452;BMP280;23314;51.114;6.900;2023-11-21T09:32:45;101253.41;;;12.21
37452;BMP280;23314;51.114;6.900;2023-11-21T09:35:10;101247.28;;;12.25
37452;BMP280;23314;51.114;6.900;2023-11-21T09:37:36;101244.59;;;12.25
37452;BMP280;23314;51.114;6.900;2023-11-21T09:40:04;101244.94;;;12.27
37452;BMP280;23314;51.114;6.900;2023-11-21T09:42:36;101256.84;;;12.26
37452;BMP280;23314;51.114;6.900;2023-11-21T09:47:38;101262.53;;;12.28
37452;BMP280;23314;51.114;6.900;2023-11-21T09:50:05;101264.78;;;12.29
37452;BMP280;23314;51.114;6.900;2023-11-21T09:52:40;101276.22;;;12.33
37452;BMP280;23314;51.114;6.900;2023-11-21T09:55:09;101270.44;;;12.38
37452;BMP280;23314;51.114;6.900;2023-11-21T09:57:38;101273.03;;;12.42
37452;BMP280;23314;51.114;6.900;2023-11-21T10:00:04;101268.47;;;12.43
37452;BMP280;23314;51.114;6.900;2023-11-21T10:02:32;101270.38;;;12.42
37452;BMP280;23314;51.114;6.900;2023-11-21T10:05:02;101271.09;;;12.46
37452;BMP280;23314;51.114;6.900;2023-11-21T10:07:28;101270.66;;;12.51
37452;BMP280;23314;51.114;6.900;2023-11-21T10:09:54;101269.41;;;12.60
37452;BMP280;23314;51.114;6.900;2023-11-21T10:12:20;101267.03;;;12.65
37452;BMP280;23314;51.114;6.900;2023-11-21T10:14:48;101278.81;;;12.71
37452;BMP280;23314;51.114;6.900;2023-11-21T10:17:15;101276.84;;;12.76
37452;BMP280;23314;51.114;6.900;2023-11-21T10:19:46;101274.16;;;12.76
37452;BMP280;23314;51.114;6.900;2023-11-21T10:22:12;101272.19;;;12.80
37452;BMP280;23314;51.114;6.900;2023-11-21T10:24:38;101271.03;;;12.81
37452;BMP280;23314;51.114;6.900;2023-11-21T10:27:04;101279.34;;;12.86
37452;BMP280;23314;51.114;6.900;2023-11-21T10:29:29;101273.19;;;12.90
37452;BMP280;23314;51.114;6.900;2023-11-21T10:31:56;101278.09;;;12.95
37452;BMP280;23314;51.114;6.900;2023-11-21T10:34:24;101276.84;;;12.99
37452;BMP280;23314;51.114;6.900;2023-11-21T10:36:49;101275.69;;;13.04
37452;BMP280;23314;51.114;6.900;2023-11-21T10:39:21;101278.28;;;13.08
37452;BMP280;23314;51.114;6.900;2023-11-21T10:41:49;101279.38;;;13.10
37452;BMP280;23314;51.114;6.900;2023-11-21T10:44:16;101280.88;;;13.11
37452;BMP280;23314;51.114;6.900;2023-11-21T10:46:47;101280.88;;;13.11
37452;BMP280;23314;51.114;6.900;2023-11-21T10:49:17;101286.59;;;13.13
37452;BMP280;23314;51.114;6.900;2023-11-21T10:51:46;101294.28;;;13.11
37452;BMP280;23314;51.114;6.900;2023-11-21T10:54:17;101285.94;;;13.09
37452;BMP280;23314;51.114;6.900;2023-11-21T10:56:42;101290.53;;;13.09
37452;BMP280;23314;51.114;6.900;2023-11-21T10:59:12;101295.16;;;13.04
37452;BMP280;23314;51.114;6.900;2023-11-21T11:01:42;101295.59;;;13.03
37452;BMP280;23314;51.114;6.900;2023-11-21T11:04:10;101292.44;;;13.08
37452;BMP280;23314;51.114;6.900;2023-11-21T11:06:52;101303.84;;;13.12
37452;BMP280;23314;51.114;6.900;2023-11-21T11:09:18;101312.91;;;13.22
37452;BMP280;23314;51.114;6.900;2023-11-21T11:11:44;101307.78;;;13.31
37452;BMP280;23314;51.114;6.900;2023-11-21T11:14:11;101312.59;;;13.40
37452;BMP280;23314;51.114;6.900;2023-11-21T11:16:38;101308.94;;;13.30
37452;BMP280;23314;51.114;6.900;2023-11-21T11:19:06;101312.91;;;13.22
37452;BMP280;23314;51.114;6.900;2023-11-21T11:21:47;101314.88;;;13.18
37452;BMP280;23314;51.114;6.900;2023-11-21T11:24:33;101311.88;;;13.12
37452;BMP280;23314;51.114;6.900;2023-11-21T11:27:25;101314.63;;;13.09
37452;BMP280;23314;51.114;6.900;2023-11-21T11:32:40;101308.53;;;13.08
37452;BMP280;23314;51.114;6.900;2023-11-21T11:35:58;101309.72;;;13.03
37452;BMP280;23314;51.114;6.900;2023-11-21T11:38:27;101311.28;;;13.01
37452;BMP280;23314;51.114;6.900;2023-11-21T11:40:56;101315.84;;;13.04
37452;BMP280;23314;51.114;6.900;2023-11-21T11:43:27;101322.25;;;13.10
37452;BMP280;23314;51.114;6.900;2023-11-21T11:45:59;101309.72;;;13.03
37452;BMP280;23314;51.114;6.900;2023-11-21T11:48:25;101316.94;;;13.07
37452;BMP280;23314;51.114;6.900;2023-11-21T11:51:10;101328.69;;;12.89
37452;BMP280;23314;51.114;6.900;2023-11-21T11:53:47;101323.91;;;12.73
37452;BMP280;23314;51.114;6.900;2023-11-21T11:56:27;101329.34;;;12.66
37452;BMP280;23314;51.114;6.900;2023-11-21T11:58:54;101325.28;;;12.85
37452;BMP280;23314;51.114;6.900;2023-11-21T12:01:21;101322.25;;;12.83
37452;BMP280;23314;51.114;6.900;2023-11-21T12:06:42;101318.56;;;13.00
37452;BMP280;23314;51.114;6.900;2023-11-21T12:09:19;101320.41;;;13.07
37452;BMP280;23314;51.114;6.900;2023-11-21T12:11:46;101327.59;;;13.10
37452;BMP280;23314;51.114;6.900;2023-11-21T12:14:12;101324.19;;;13.10
37452;BMP280;23314;51.114;6.900;2023-11-21T12:16:39;101334.47;;;13.11
37452;BMP280;23314;51.114;6.900;2023-11-21T12:19:04;101342.47;;;13.15
37452;BMP280;23314;51.114;6.900;2023-11-21T12:21:30;101332.50;;;13.15
37452;BMP280;23314;51.114;6.900;2023-11-21T12:23:57;101350.81;;;13.20
37452;BMP280;23314;51.114;6.900;2023-11-21T12:26:24;101350.75;;;13.24
37452;BMP280;23314;51.114;6.900;2023-11-21T12:28:53;101345.41;;;13.24
37452;BMP280;23314;51.114;6.900;2023-11-21T12:31:22;101348.38;;;13.30
37452;BMP280;23314;51.114;6.900;2023-11-21T12:33:48;101350.94;;;13.37
37452;BMP280;23314;51.114;6.900;2023-11-21T12:36:13;101347.41;;;13.44
37452;BMP280;23314;51.114;6.900;2023-11-21T12:38:39;101347.28;;;13.51
37452;BMP280;23314;51.114;6.900;2023-11-21T12:41:05;101355.63;;;13.57
37452;BMP280;23314;51.114;6.900;2023-11-21T12:43:31;101350.56;;;13.62
37452;BMP280;23314;51.114;6.900;2023-11-21T12:46:11;101355.50;;;13.64
37452;BMP280;23314;51.114;6.900;2023-11-21T12:48:37;101354.03;;;13.59
37452;BMP280;23314;51.114;6.900;2023-11-21T12:51:05;101366.78;;;13.51
37452;BMP280;23314;51.114;6.900;2023-11-21T12:53:32;101365.31;;;13.47
37452;BMP280;23314;51.114;6.900;2023-11-21T12:56:05;101363.44;;;13.47
37452;BMP280;23314;51.114;6.900;2023-11-21T12:58:31;101361.31;;;13.59
37452;BMP280;23314;51.114;6.900;2023-11-21T13:00:59;101361.63;;;13.64
37452;BMP280;23314;51.114;6.900;2023-11-21T13:03:25;101366.13;;;13.71
37452;BMP280;23314;51.114;6.900;2023-11-21T13:05:52;101365.84;;;13.85
37452;BMP280;23314;51.114;6.900;2023-11-21T13:08:21;101367.69;;;13.68
37452;BMP280;23314;51.114;6.900;2023-11-21T13:10:52;101365.34;;;13.70
37452;BMP280;23314;51.114;6.900;2023-11-21T13:13:20;101370.03;;;13.66
37452;BMP280;23314;51.114;6.900;2023-11-21T13:15:50;101372.88;;;13.56
37452;BMP280;23314;51.114;6.900;2023-11-21T13:18:16;101376.34;;;13.52
37452;BMP280;23314;51.114;6.900;2023-11-21T13:20:42;101372.53;;;13.53
37452;BMP280;23314;51.114;6.900;2023-11-21T13:23:09;101381.78;;;13.49
37452;BMP280;23314;51.114;6.900;2023-11-21T13:25:40;101387.63;;;13.44
37452;BMP280;23314;51.114;6.900;2023-11-21T13:28:11;101383.06;;;13.41
37452;BMP280;23314;51.114;6.900;2023-11-21T13:30:37;101383.50;;;13.35
37452;BMP280;23314;51.114;6.900;2023-11-21T13:33:05;101390.84;;;13.31
37452;BMP280;23314;51.114;6.900;2023-11-21T13:35:36;101397.81;;;13.25
37452;BMP280;23314;51.114;6.900;2023-11-21T13:38:12;101395.19;;;13.21
37452;BMP280;23314;51.114;6.900;2023-11-21T13:40:39;101404.00;;;13.22
37452;BMP280;23314;51.114;6.900;2023-11-21T13:43:12;101411.31;;;13.18
37452;BMP280;23314;51.114;6.900;2023-11-21T13:45:41;101404.47;;;13.17
37452;BMP280;23314;51.114;6.900;2023-11-21T13:48:07;101408.28;;;13.16
37452;BMP280;23314;51.114;6.900;2023-11-21T13:50:39;101405.53;;;13.19
37452;BMP280;23314;51.114;6.900;2023-11-21T13:53:10;101409.38;;;13.18
37452;BMP280;23314;51.114;6.900;2023-11-21T13:55:47;101411.28;;;13.21
37452;BMP280;23314;51.114;6.900;2023-11-21T13:58:14;101409.00;;;13.20
37452;BMP280;23314;51.114;6.900;2023-11-21T14:00:45;101414.34;;;13.20
37452;BMP280;23314;51.114;6.900;2023-11-21T14:03:14;101414.34;;;13.20
37452;BMP280;23314;51.114;6.900;2023-11-21T14:05:47;101410.56;;;13.17